Terminal Aerodrome Forecast
Issued by NWS

Home | Current Version | Previous Version | Text Only | Print | Product List | Glossary On
Versions: 1 2 3 4 5 6 7 8 9 10 11 12
000
FTUS45 KABQ 261134
TAFAEG
TAF
KAEG 261134Z 2612/2712 08008KT P6SM FEW060
     FM261500 07014G25KT P6SM SCT040
     FM262300 09018G28KT P6SM VCTS SCT040 BKN080CB
     FM270300 09012KT P6SM VCSH BKN030=

USA.gov is the U.S. government's official web portal to all federal, state and local government web resources and services.